createdAt,value
2022-12-25T00:02:00.710Z,98464.03
2022-12-25T00:04:27.677Z,98461.75
2022-12-25T00:06:55.493Z,98450.16
2022-12-25T00:09:22.428Z,98448.94
2022-12-25T00:11:49.128Z,98450.69
2022-12-25T00:14:15.843Z,98464.13
2022-12-25T00:16:42.787Z,98455.84
2022-12-25T00:19:09.478Z,98443.53
2022-12-25T00:21:36.252Z,98438.34
2022-12-25T00:24:03.583Z,98458.22
2022-12-25T00:26:30.373Z,98449.16
2022-12-25T00:28:58.251Z,98445.19
2022-12-25T00:31:25.654Z,98443.53
2022-12-25T00:33:53.100Z,98443.69
2022-12-25T00:36:21.986Z,98447.97
2022-12-25T00:38:48.775Z,98443.56
2022-12-25T00:41:38.389Z,98445.25
2022-12-25T00:44:06.019Z,98440.47
2022-12-25T00:46:32.773Z,98437.50
2022-12-25T00:49:02.644Z,98437.25
2022-12-25T00:51:29.389Z,98434.69
2022-12-25T00:53:56.000Z,98439.63
2022-12-25T00:56:22.739Z,98436.84
2022-12-25T00:58:49.387Z,98442.53
2022-12-25T01:01:16.155Z,98449.53
2022-12-25T01:03:43.207Z,98441.38
2022-12-25T01:06:12.760Z,98450.97
2022-12-25T01:09:00.120Z,98444.16
2022-12-25T01:11:27.590Z,98426.56
2022-12-25T01:13:54.277Z,98436.31
2022-12-25T01:16:21.309Z,98446.75
2022-12-25T01:18:48.018Z,98451.97
2022-12-25T01:21:17.623Z,98450.59
2022-12-25T01:23:44.841Z,98449.16
2022-12-25T01:26:13.417Z,98453.91
2022-12-25T01:28:40.840Z,98464.34
2022-12-25T01:31:14.612Z,98459.94
2022-12-25T01:33:43.637Z,98455.53
2022-12-25T01:36:24.952Z,98448.09
2022-12-25T01:38:52.977Z,98450.06
2022-12-25T01:41:22.098Z,98446.53
2022-12-25T01:44:02.045Z,98444.03
2022-12-25T01:46:29.848Z,98436.72
2022-12-25T01:49:00.465Z,98441.31
2022-12-25T01:51:37.011Z,98438.63
2022-12-25T01:54:07.641Z,98426.81
2022-12-25T01:56:37.592Z,98426.34
2022-12-25T01:59:06.325Z,98427.16
2022-12-25T02:01:33.171Z,98431.97
2022-12-25T02:04:23.658Z,98420.41
2022-12-25T02:06:51.685Z,98420.63
2022-12-25T02:09:18.940Z,98425.19
2022-12-25T02:11:58.856Z,98420.34
2022-12-25T02:14:29.701Z,98405.03
2022-12-25T02:17:13.213Z,98414.94
2022-12-25T02:20:03.399Z,98416.72
2022-12-25T02:22:57.669Z,98407.53
2022-12-25T02:25:43.463Z,98397.72
2022-12-25T02:28:25.123Z,98409.78
2022-12-25T02:31:01.237Z,98412.56
2022-12-25T02:33:55.781Z,98410.66
2022-12-25T02:36:27.355Z,98413.84
2022-12-25T02:39:17.590Z,98398.88
2022-12-25T02:41:47.906Z,98404.31
2022-12-25T02:44:39.600Z,98399.16
2022-12-25T02:47:27.035Z,98397.28
2022-12-25T02:50:14.907Z,98390.34
2022-12-25T02:53:03.263Z,98394.59
2022-12-25T02:55:57.404Z,98391.94
2022-12-25T02:58:45.442Z,98386.38
2022-12-25T03:01:36.532Z,98386.38
2022-12-25T03:04:27.063Z,98380.31
2022-12-25T03:07:06.070Z,98395.84
2022-12-25T03:09:57.765Z,98398.34
2022-12-25T03:12:37.535Z,98395.69
2022-12-25T03:15:24.973Z,98392.06
2022-12-25T03:17:52.102Z,98388.44
2022-12-25T03:20:37.516Z,98387.09
2022-12-25T03:23:23.043Z,98383.41
2022-12-25T03:26:08.417Z,98372.34
2022-12-25T03:28:36.259Z,98369.63
2022-12-25T03:31:14.091Z,98370.78
2022-12-25T03:34:22.996Z,98367.47
2022-12-25T03:37:27.712Z,98360.59
2022-12-25T03:40:56.092Z,98360.22
2022-12-25T03:43:56.570Z,98352.84
2022-12-25T03:46:45.428Z,98361.38
2022-12-25T03:49:42.047Z,98345.06
2022-12-25T03:52:32.575Z,98341.41
2022-12-25T03:55:22.853Z,98345.88
2022-12-25T03:58:08.537Z,98342.09
2022-12-25T04:00:53.691Z,98345.81
2022-12-25T04:03:39.109Z,98340.25
2022-12-25T04:06:24.729Z,98331.78
2022-12-25T04:09:10.005Z,98323.78
2022-12-25T04:12:03.336Z,98327.53
2022-12-25T04:14:48.814Z,98322.53
2022-12-25T04:17:34.301Z,98330.75
2022-12-25T04:20:19.645Z,98321.34
2022-12-25T04:23:05.051Z,98310.22
2022-12-25T04:25:50.475Z,98307.06
2022-12-25T04:28:35.943Z,98290.28
2022-12-25T04:31:21.980Z,98298.56
2022-12-25T04:34:07.127Z,98290.66
2022-12-25T04:36:33.820Z,98302.38
2022-12-25T04:39:00.477Z,98303.75
2022-12-25T04:41:27.143Z,98299.97
2022-12-25T04:43:53.760Z,98305.66
2022-12-25T04:46:20.426Z,98306.31
2022-12-25T04:48:47.845Z,98303.47
2022-12-25T04:51:17.753Z,98308.72
2022-12-25T04:53:45.461Z,98298.66
2022-12-25T04:56:12.597Z,98296.19
2022-12-25T04:58:39.359Z,98306.06
2022-12-25T05:01:06.244Z,98301.09
2022-12-25T05:03:33.689Z,98309.78
2022-12-25T05:06:01.364Z,98313.31
2022-12-25T05:08:32.347Z,98305.06
2022-12-25T05:10:59.243Z,98293.25
2022-12-25T05:13:26.284Z,98301.50
2022-12-25T05:15:53.211Z,98293.97
2022-12-25T05:18:19.898Z,98288.63
2022-12-25T05:20:54.631Z,98300.81
2022-12-25T05:23:22.179Z,98302.81
2022-12-25T05:25:49.021Z,98291.47
2022-12-25T05:28:15.999Z,98288.69
2022-12-25T05:30:42.802Z,98291.13
2022-12-25T05:33:12.546Z,98281.53
2022-12-25T05:35:39.985Z,98280.03
2022-12-25T05:38:07.808Z,98276.13
2022-12-25T05:40:34.850Z,98285.66
2022-12-25T05:43:01.537Z,98284.66
2022-12-25T05:45:28.332Z,98276.41
2022-12-25T05:47:55.010Z,98269.13
2022-12-25T05:50:21.718Z,98250.63
2022-12-25T05:52:48.391Z,98256.31
2022-12-25T05:55:15.098Z,98254.03
2022-12-25T05:57:41.803Z,98263.50
2022-12-25T06:00:11.783Z,98262.91
2022-12-25T06:02:41.230Z,98264.13
2022-12-25T06:05:08.403Z,98260.41
2022-12-25T06:07:35.052Z,98260.75
2022-12-25T06:10:01.737Z,98257.56
2022-12-25T06:12:28.383Z,98254.94
2022-12-25T06:14:54.996Z,98249.44
2022-12-25T06:17:24.487Z,98251.38
2022-12-25T06:19:51.130Z,98247.50
2022-12-25T06:22:17.818Z,98246.13
2022-12-25T06:24:44.555Z,98246.69
2022-12-25T06:27:11.211Z,98240.75
2022-12-25T06:29:37.919Z,98240.50
2022-12-25T06:32:04.855Z,98225.16
2022-12-25T06:34:31.557Z,98230.34
2022-12-25T06:36:58.185Z,98219.19
2022-12-25T06:39:25.550Z,98227.25
2022-12-25T06:41:52.271Z,98222.19
2022-12-25T06:44:18.993Z,98220.69
2022-12-25T06:46:45.786Z,98226.00
2022-12-25T06:49:12.628Z,98221.03
2022-12-25T06:51:39.273Z,98212.09
2022-12-25T06:54:06.415Z,98219.78
2022-12-25T06:56:33.987Z,98229.66
2022-12-25T06:59:06.481Z,98237.38
2022-12-25T07:01:42.068Z,98235.31
2022-12-25T07:04:38.320Z,98232.72
2022-12-25T07:07:09.181Z,98232.00
2022-12-25T07:09:38.731Z,98225.34
2022-12-25T07:12:13.677Z,98226.06
2022-12-25T07:14:40.797Z,98233.91
2022-12-25T07:17:07.489Z,98246.78
2022-12-25T07:19:36.145Z,98249.97
2022-12-25T07:22:06.451Z,98250.56
2022-12-25T07:24:33.168Z,98237.31
2022-12-25T07:26:59.915Z,98239.06
2022-12-25T07:29:26.627Z,98225.41
2022-12-25T07:31:53.330Z,98222.50
2022-12-25T07:34:20.119Z,98224.91
2022-12-25T07:36:46.921Z,98221.97
2022-12-25T07:39:13.812Z,98225.44
2022-12-25T07:41:40.515Z,98225.31
2022-12-25T07:44:14.600Z,98210.91
2022-12-25T07:46:41.514Z,98201.94
2022-12-25T07:49:08.180Z,98191.34
2022-12-25T07:51:34.925Z,98194.41
2022-12-25T07:54:01.654Z,98194.66
2022-12-25T07:56:28.507Z,98200.75
2022-12-25T07:58:55.202Z,98216.25
2022-12-25T08:01:24.739Z,98206.28
2022-12-25T08:03:52.533Z,98197.31
2022-12-25T08:06:20.341Z,98202.22
2022-12-25T08:08:47.157Z,98207.41
2022-12-25T08:11:14.401Z,98218.53
2022-12-25T08:13:41.296Z,98228.53
2022-12-25T08:16:10.173Z,98235.00
2022-12-25T08:18:38.107Z,98241.53
2022-12-25T08:21:10.258Z,98243.31
2022-12-25T08:23:39.357Z,98245.28
2022-12-25T08:26:08.409Z,98252.34
2022-12-25T08:28:35.939Z,98233.44
2022-12-25T08:31:10.631Z,98244.44
2022-12-25T08:33:37.567Z,98247.25
2022-12-25T08:36:06.442Z,98240.56
2022-12-25T08:38:33.460Z,98246.69
2022-12-25T08:41:00.440Z,98245.16
2022-12-25T08:43:27.285Z,98243.00
2022-12-25T08:45:53.998Z,98240.72
2022-12-25T08:48:20.805Z,98237.06
2022-12-25T08:50:48.725Z,98231.16
2022-12-25T08:53:15.910Z,98230.09
2022-12-25T08:55:43.237Z,98240.00
2022-12-25T08:58:10.658Z,98241.00
2022-12-25T09:00:37.438Z,98233.94
2022-12-25T09:03:04.427Z,98223.97
2022-12-25T09:05:31.263Z,98228.03
2022-12-25T09:07:57.942Z,98236.09
2022-12-25T09:10:24.673Z,98223.47
2022-12-25T09:12:51.327Z,98224.53
2022-12-25T09:15:18.018Z,98223.31
2022-12-25T09:17:44.865Z,98223.56
2022-12-25T09:20:11.553Z,98206.50
2022-12-25T09:22:38.425Z,98202.13
2022-12-25T09:25:05.512Z,98201.28
2022-12-25T09:27:32.266Z,98201.56
2022-12-25T09:29:59.001Z,98206.91
2022-12-25T09:32:25.696Z,98209.75
2022-12-25T09:34:52.387Z,98211.91
2022-12-25T09:37:19.074Z,98224.00
2022-12-25T09:39:46.487Z,98220.06
2022-12-25T09:42:23.942Z,98225.78
2022-12-25T09:44:59.229Z,98227.50
2022-12-25T09:47:30.924Z,98238.47
2022-12-25T09:50:03.357Z,98231.31
2022-12-25T09:52:33.025Z,98235.19
2022-12-25T09:55:14.789Z,98238.13
2022-12-25T09:57:45.780Z,98219.28
2022-12-25T10:00:18.503Z,98220.94
2022-12-25T10:02:55.673Z,98219.19
2022-12-25T10:05:44.104Z,98209.38
2022-12-25T10:08:39.375Z,98194.81
2022-12-25T10:11:38.215Z,98191.22
2022-12-25T10:14:10.904Z,98187.53
2022-12-25T10:16:55.147Z,98188.16
2022-12-25T10:19:50.657Z,98197.81
2022-12-25T10:22:29.083Z,98189.06
2022-12-25T10:24:59.216Z,98195.84
2022-12-25T10:27:25.844Z,98187.69
2022-12-25T10:29:56.412Z,98193.63
2022-12-25T10:32:23.179Z,98184.22
2022-12-25T10:34:50.590Z,98178.97
2022-12-25T10:37:17.691Z,98171.53
2022-12-25T10:39:46.904Z,98158.50
2022-12-25T10:42:46.175Z,98141.31
2022-12-25T10:45:12.940Z,98128.66
2022-12-25T10:47:44.117Z,98130.94
2022-12-25T10:50:26.052Z,98120.53
2022-12-25T10:52:56.744Z,98122.44
2022-12-25T10:55:28.389Z,98121.28
2022-12-25T10:57:57.935Z,98120.72
2022-12-25T11:00:27.817Z,98111.63
2022-12-25T11:02:55.157Z,98115.00
2022-12-25T11:05:33.577Z,98115.03
2022-12-25T11:08:02.443Z,98122.53
2022-12-25T11:10:33.863Z,98108.09
2022-12-25T11:13:01.628Z,98116.59
2022-12-25T11:15:42.786Z,98106.13
2022-12-25T11:18:21.041Z,98119.69
2022-12-25T11:20:52.891Z,98106.09
2022-12-25T11:23:21.864Z,98110.84
2022-12-25T11:26:02.826Z,98102.31
2022-12-25T11:28:32.749Z,98084.81
2022-12-25T11:31:02.856Z,98084.75
2022-12-25T11:33:36.542Z,98058.53
2022-12-25T11:36:14.053Z,98037.81
2022-12-25T11:38:40.736Z,98034.44
2022-12-25T11:41:12.760Z,98031.97
2022-12-25T11:43:46.645Z,98039.69
2022-12-25T11:46:45.298Z,98033.78
2022-12-25T11:49:16.794Z,98023.38
2022-12-25T11:51:47.200Z,98030.44
2022-12-25T11:54:37.908Z,98003.63
2022-12-25T11:57:06.365Z,97999.53
2022-12-25T11:59:49.367Z,98005.75
2022-12-25T12:02:28.270Z,98004.78
2022-12-25T12:05:14.644Z,98010.13
2022-12-25T12:07:52.445Z,97994.50
2022-12-25T12:10:41.961Z,97998.66
2022-12-25T12:13:30.976Z,98011.31
2022-12-25T12:15:58.507Z,98016.25
2022-12-25T12:18:27.992Z,98017.16
2022-12-25T12:21:09.686Z,98024.19
2022-12-25T12:23:57.179Z,98025.84
2022-12-25T12:26:27.142Z,98020.47
2022-12-25T12:28:57.580Z,98020.41
2022-12-25T12:31:25.180Z,98022.66
2022-12-25T12:33:56.487Z,98018.47
2022-12-25T12:36:35.547Z,98030.97
2022-12-25T12:39:05.033Z,98027.47
2022-12-25T12:41:46.260Z,98039.63
2022-12-25T12:44:15.995Z,98036.88
2022-12-25T12:46:52.460Z,98038.09
2022-12-25T12:49:32.218Z,98037.63
2022-12-25T12:52:23.911Z,98032.22
2022-12-25T12:55:09.067Z,98018.34
2022-12-25T12:57:40.170Z,98019.94
2022-12-25T13:00:19.905Z,98010.94
2022-12-25T13:02:52.473Z,98014.06
2022-12-25T13:05:48.879Z,98017.72
2022-12-25T13:08:27.786Z,98018.16
2022-12-25T13:11:12.765Z,98011.94
2022-12-25T13:13:42.605Z,98031.00
2022-12-25T13:16:34.537Z,98031.00
2022-12-25T13:19:07.126Z,98029.06
2022-12-25T13:21:34.919Z,98030.19
2022-12-25T13:24:16.707Z,98026.91
2022-12-25T13:26:43.740Z,98038.19
2022-12-25T13:29:39.845Z,98033.91
2022-12-25T13:32:18.100Z,98026.06
2022-12-25T13:34:44.894Z,98023.25
2022-12-25T13:37:17.809Z,98027.41
2022-12-25T13:40:17.332Z,98030.13
2022-12-25T13:42:46.778Z,98027.31
2022-12-25T13:45:13.385Z,98034.31
2022-12-25T13:47:49.923Z,98025.00
2022-12-25T13:50:31.763Z,98038.66
2022-12-25T13:53:12.140Z,98027.56
2022-12-25T13:55:41.616Z,98027.94
2022-12-25T13:58:25.015Z,98033.84
2022-12-25T14:00:54.326Z,98035.28
2022-12-25T14:03:27.841Z,98043.44
2022-12-25T14:06:00.174Z,98048.22
2022-12-25T14:08:31.489Z,98056.69
2022-12-25T14:11:01.495Z,98055.59
2022-12-25T14:13:30.283Z,98053.06
2022-12-25T14:15:57.920Z,98042.88
2022-12-25T14:18:25.985Z,98044.28
2022-12-25T14:21:15.441Z,98041.38
2022-12-25T14:23:48.509Z,98041.19
2022-12-25T14:26:16.569Z,98045.81
2022-12-25T14:28:48.364Z,98041.59
2022-12-25T14:31:15.442Z,98041.25
2022-12-25T14:33:45.556Z,98041.25
2022-12-25T14:36:13.460Z,98041.50
2022-12-25T14:38:43.772Z,98046.72
2022-12-25T14:41:33.457Z,98043.78
2022-12-25T14:44:25.436Z,98042.22
2022-12-25T14:47:13.799Z,98048.31
2022-12-25T14:49:40.833Z,98063.75
2022-12-25T14:52:17.903Z,98059.53
2022-12-25T14:55:00.810Z,98060.09
2022-12-25T14:57:34.276Z,98062.53
2022-12-25T15:00:10.366Z,98064.31
2022-12-25T15:02:42.652Z,98065.72
2022-12-25T15:05:30.373Z,98058.84
2022-12-25T15:08:06.393Z,98060.38
2022-12-25T15:13:21.387Z,98071.88
2022-12-25T15:15:54.610Z,98066.41
2022-12-25T15:18:27.458Z,98070.94
2022-12-25T15:20:55.469Z,98068.28
2022-12-25T15:23:22.289Z,98079.59
2022-12-25T15:25:50.972Z,98080.69
2022-12-25T15:28:18.510Z,98091.50
2022-12-25T15:30:45.646Z,98095.16
2022-12-25T15:33:17.051Z,98076.97
2022-12-25T15:35:44.480Z,98073.63
2022-12-25T15:38:13.081Z,98073.03
2022-12-25T15:40:40.727Z,98074.91
2022-12-25T15:43:14.557Z,98057.00
2022-12-25T15:45:49.172Z,98049.94
2022-12-25T15:48:15.848Z,98051.72
2022-12-25T15:50:44.151Z,98043.78
2022-12-25T15:53:10.985Z,98049.13
2022-12-25T15:55:38.102Z,98047.28
2022-12-25T15:58:04.739Z,98049.16
2022-12-25T16:00:31.530Z,98050.41
2022-12-25T16:02:58.403Z,98057.47
2022-12-25T16:05:26.558Z,98060.91
2022-12-25T16:07:53.169Z,98061.06
2022-12-25T16:10:20.404Z,98065.81
2022-12-25T16:12:47.406Z,98065.16
2022-12-25T16:15:15.275Z,98075.34
2022-12-25T16:17:42.508Z,98082.09
2022-12-25T16:20:09.766Z,98083.44
2022-12-25T16:22:39.999Z,98079.25
2022-12-25T16:25:13.838Z,98080.09
2022-12-25T16:27:40.622Z,98091.13
2022-12-25T16:30:07.986Z,98094.22
2022-12-25T16:32:35.191Z,98088.28
2022-12-25T16:35:02.074Z,98093.13
2022-12-25T16:37:29.173Z,98092.75
2022-12-25T16:39:55.820Z,98098.97
2022-12-25T16:42:22.616Z,98102.09
2022-12-25T16:44:49.273Z,98096.81
2022-12-25T16:47:15.947Z,98110.88
2022-12-25T16:49:45.791Z,98117.72
2022-12-25T16:52:12.447Z,98116.63
2022-12-25T16:54:39.108Z,98113.25
2022-12-25T16:57:05.872Z,98118.16
2022-12-25T16:59:32.939Z,98112.72
2022-12-25T17:01:59.748Z,98098.41
2022-12-25T17:04:28.071Z,98089.59
2022-12-25T17:06:54.835Z,98100.75
2022-12-25T17:09:21.539Z,98099.50
2022-12-25T17:11:48.497Z,98104.88
2022-12-25T17:14:15.641Z,98116.72
2022-12-25T17:16:42.694Z,98104.19
2022-12-25T17:19:19.465Z,98105.78
2022-12-25T17:21:47.297Z,98103.94
2022-12-25T17:24:14.534Z,98095.84
2022-12-25T17:26:44.084Z,98099.56
2022-12-25T17:29:14.683Z,98103.22
2022-12-25T17:31:45.343Z,98114.84
2022-12-25T17:34:12.142Z,98127.69
2022-12-25T17:36:38.849Z,98119.22
2022-12-25T17:39:06.377Z,98129.94
2022-12-25T17:41:33.417Z,98127.94
2022-12-25T17:44:00.143Z,98137.38
2022-12-25T17:46:29.223Z,98138.88
2022-12-25T17:48:57.848Z,98147.81
2022-12-25T17:51:27.173Z,98140.09
2022-12-25T17:53:56.891Z,98148.31
2022-12-25T17:56:24.390Z,98142.63
2022-12-25T17:58:53.294Z,98140.19
2022-12-25T18:01:20.862Z,98140.78
2022-12-25T18:03:48.359Z,98141.75
2022-12-25T18:06:19.219Z,98128.81
2022-12-25T18:08:47.174Z,98119.22
2022-12-25T18:11:16.809Z,98128.44
2022-12-25T18:13:48.184Z,98113.31
2022-12-25T18:16:15.613Z,98117.25
2022-12-25T18:18:49.529Z,98116.84
2022-12-25T18:21:18.699Z,98116.94
2022-12-25T18:23:46.270Z,98123.25
2022-12-25T18:26:13.868Z,98130.69
2022-12-25T18:28:42.284Z,98119.00
2022-12-25T18:31:20.344Z,98143.63
2022-12-25T18:33:47.476Z,98145.22
2022-12-25T18:36:16.328Z,98139.94
2022-12-25T18:38:43.104Z,98151.16
2022-12-25T18:41:10.525Z,98140.09
2022-12-25T18:43:52.465Z,98145.59
2022-12-25T18:46:24.869Z,98136.53
2022-12-25T18:48:53.605Z,98130.88
2022-12-25T18:51:20.297Z,98128.75
2022-12-25T18:53:47.136Z,98126.63
2022-12-25T18:56:17.501Z,98124.69
2022-12-25T18:58:45.617Z,98142.84
2022-12-25T19:01:18.433Z,98139.75
2022-12-25T19:03:46.187Z,98129.63
2022-12-25T19:06:17.978Z,98119.00
2022-12-25T19:08:44.700Z,98112.97
2022-12-25T19:11:11.467Z,98109.22
2022-12-25T19:13:38.203Z,98107.25
2022-12-25T19:16:05.475Z,98113.09
2022-12-25T19:18:32.259Z,98115.31
2022-12-25T19:21:04.151Z,98124.16
2022-12-25T19:23:31.399Z,98126.63
2022-12-25T19:25:58.186Z,98124.28
2022-12-25T19:28:25.403Z,98134.13
2022-12-25T19:30:54.123Z,98143.22
2022-12-25T19:33:22.739Z,98123.72
2022-12-25T19:35:49.855Z,98141.25
2022-12-25T19:38:16.564Z,98133.25
2022-12-25T19:41:00.244Z,98131.06
2022-12-25T19:43:32.630Z,98136.84
2022-12-25T19:46:00.475Z,98127.81
2022-12-25T19:48:29.717Z,98130.41
2022-12-25T19:50:56.736Z,98123.31
2022-12-25T19:53:24.292Z,98124.16
2022-12-25T19:55:55.421Z,98129.88
2022-12-25T19:58:23.686Z,98134.03
2022-12-25T20:01:01.493Z,98132.81
2022-12-25T20:03:28.322Z,98151.59
2022-12-25T20:05:55.117Z,98164.19
2022-12-25T20:08:22.007Z,98157.28
2022-12-25T20:10:49.175Z,98158.09
2022-12-25T20:13:16.350Z,98164.38
2022-12-25T20:15:43.062Z,98167.97
2022-12-25T20:18:10.172Z,98170.34
2022-12-25T20:20:36.888Z,98167.69
2022-12-25T20:23:03.972Z,98165.66
2022-12-25T20:25:30.591Z,98175.22
2022-12-25T20:27:58.040Z,98180.53
2022-12-25T20:30:24.805Z,98180.66
2022-12-25T20:32:51.543Z,98190.44
2022-12-25T20:35:18.950Z,98197.94
2022-12-25T20:37:45.676Z,98198.75
2022-12-25T20:40:12.681Z,98197.84
2022-12-25T20:42:39.367Z,98198.53
2022-12-25T20:45:07.726Z,98203.28
2022-12-25T20:47:35.252Z,98194.66
2022-12-25T20:50:02.208Z,98193.59
2022-12-25T20:52:29.004Z,98190.09
2022-12-25T20:54:55.676Z,98184.34
2022-12-25T20:57:22.436Z,98182.09
2022-12-25T20:59:49.307Z,98186.66
2022-12-25T21:02:34.211Z,98185.09
2022-12-25T21:05:07.910Z,98186.44
2022-12-25T21:07:34.687Z,98191.25
2022-12-25T21:10:01.291Z,98192.03
2022-12-25T21:12:28.036Z,98195.94
2022-12-25T21:14:54.842Z,98194.66
2022-12-25T21:17:21.939Z,98196.44
2022-12-25T21:19:49.558Z,98197.09
2022-12-25T21:22:16.247Z,98197.84
2022-12-25T21:24:42.969Z,98192.38
2022-12-25T21:27:09.698Z,98184.16
2022-12-25T21:29:36.621Z,98189.22
2022-12-25T21:32:21.599Z,98191.28
2022-12-25T21:34:48.288Z,98191.09
2022-12-25T21:37:14.939Z,98191.53
2022-12-25T21:39:41.661Z,98188.94
2022-12-25T21:42:08.402Z,98197.31
2022-12-25T21:44:35.093Z,98193.38
2022-12-25T21:47:01.730Z,98197.31
2022-12-25T21:49:47.014Z,98195.22
2022-12-25T21:52:13.648Z,98200.22
2022-12-25T21:54:40.324Z,98201.47
2022-12-25T21:57:07.051Z,98196.94
2022-12-25T21:59:33.740Z,98194.78
2022-12-25T22:02:00.557Z,98196.66
2022-12-25T22:04:27.398Z,98205.94
2022-12-25T22:07:12.712Z,98213.81
2022-12-25T22:09:39.423Z,98212.66
2022-12-25T22:12:30.125Z,98214.75
2022-12-25T22:15:02.991Z,98217.09
2022-12-25T22:17:57.705Z,98228.84
2022-12-25T22:20:27.873Z,98224.09
2022-12-25T22:22:54.840Z,98220.56
2022-12-25T22:25:21.948Z,98224.31
2022-12-25T22:27:49.633Z,98229.31
2022-12-25T22:30:19.113Z,98237.56
2022-12-25T22:32:46.517Z,98231.88
2022-12-25T22:35:13.809Z,98234.81
2022-12-25T22:37:42.653Z,98237.38
2022-12-25T22:40:12.490Z,98234.59
2022-12-25T22:42:40.754Z,98237.19
2022-12-25T22:45:08.093Z,98225.72
2022-12-25T22:47:34.837Z,98221.47
2022-12-25T22:50:01.694Z,98230.91
2022-12-25T22:52:28.443Z,98207.56
2022-12-25T22:54:55.114Z,98201.41
2022-12-25T22:57:21.781Z,98230.34
2022-12-25T22:59:48.449Z,98238.78
2022-12-25T23:02:15.409Z,98230.00
2022-12-25T23:04:42.248Z,98234.59
2022-12-25T23:07:10.393Z,98239.75
2022-12-25T23:09:37.031Z,98239.25
2022-12-25T23:12:03.975Z,98241.03
2022-12-25T23:14:39.734Z,98241.50
2022-12-25T23:17:29.978Z,98240.75
2022-12-25T23:20:17.490Z,98240.03
2022-12-25T23:23:03.640Z,98248.34
2022-12-25T23:25:48.983Z,98239.41
2022-12-25T23:28:35.860Z,98239.66
2022-12-25T23:31:02.653Z,98230.84
2022-12-25T23:33:29.370Z,98228.22
2022-12-25T23:35:56.029Z,98218.72
2022-12-25T23:38:22.613Z,98226.09
2022-12-25T23:40:49.295Z,98227.13
2022-12-25T23:43:16.002Z,98240.19
2022-12-25T23:45:42.671Z,98234.91
2022-12-25T23:48:09.298Z,98229.19
2022-12-25T23:50:37.585Z,98223.84
2022-12-25T23:53:04.224Z,98220.13
2022-12-25T23:55:30.924Z,98212.06
2022-12-25T23:57:57.583Z,98214.25
